Terminal Aerodrome Forecast
Issued by NWS Buffalo, NY

Current Version | Previous Version | Text Only | Print | Product List | Glossary On
Versions: 1 2 3 4 5 6 7 8 9 10 11 12 13 14 15 16 17 18 19 20 21 22 23 24 25 26 27
793
FTUS41 KBUF 271723
TAFBUF
TAF
KBUF 271723Z 2718/2818 06006KT P6SM FEW140 SCT250
     FM280200 10006KT P6SM BKN250
     FM280600 15006KT P6SM BKN110
     FM280900 19008KT P6SM VCSH BKN060
     FM281600 24012G18KT P6SM BKN080=

USA.gov is the U.S. government's official web portal to all federal, state and local government web resources and services.